createdAt,value
2023-05-05T00:00:06.207Z,10.00
2023-05-05T00:00:37.642Z,10.00
2023-05-05T00:01:08.817Z,10.00
2023-05-05T00:01:41.722Z,10.00
2023-05-05T00:02:12.865Z,10.00
2023-05-05T00:02:45.871Z,10.00
2023-05-05T00:03:16.992Z,10.00
2023-05-05T00:03:49.673Z,10.00
2023-05-05T00:04:20.865Z,9.88
2023-05-05T00:04:53.613Z,9.88
2023-05-05T00:05:25.111Z,9.88
2023-05-05T00:05:57.821Z,9.88
2023-05-05T00:06:28.817Z,9.88
2023-05-05T00:07:01.592Z,9.88
2023-05-05T00:07:32.800Z,9.88
2023-05-05T00:08:05.701Z,9.88
2023-05-05T00:08:36.788Z,9.88
2023-05-05T00:09:09.430Z,9.88
2023-05-05T00:09:40.760Z,9.88
2023-05-05T00:10:13.932Z,9.88
2023-05-05T00:10:45.005Z,9.88
2023-05-05T00:11:17.661Z,9.88
2023-05-05T00:11:48.805Z,9.88
2023-05-05T00:12:21.709Z,9.88
2023-05-05T00:12:52.932Z,9.77
2023-05-05T00:13:25.496Z,9.77
2023-05-05T00:13:56.863Z,9.77
2023-05-05T00:14:29.661Z,9.77
2023-05-05T00:15:02.189Z,9.88
2023-05-05T00:15:33.653Z,9.88
2023-05-05T00:16:04.988Z,9.77
2023-05-05T00:16:37.745Z,9.77
2023-05-05T00:17:08.800Z,9.77
2023-05-05T00:17:41.826Z,9.77
2023-05-05T00:18:12.716Z,9.77
2023-05-05T00:18:45.394Z,9.77
2023-05-05T00:19:16.861Z,9.77
2023-05-05T00:19:49.721Z,9.77
2023-05-05T00:20:21.102Z,9.77
2023-05-05T00:20:53.507Z,9.77
2023-05-05T00:21:24.916Z,9.77
2023-05-05T00:21:57.415Z,9.77
2023-05-05T00:22:28.837Z,9.77
2023-05-05T00:23:01.754Z,9.77
2023-05-05T00:23:32.975Z,9.77
2023-05-05T00:24:05.425Z,9.77
2023-05-05T00:24:36.737Z,9.77
2023-05-05T00:25:09.895Z,9.77
2023-05-05T00:25:40.742Z,9.77
2023-05-05T00:26:13.552Z,9.77
2023-05-05T00:26:44.915Z,9.77
2023-05-05T00:27:17.713Z,9.77
2023-05-05T00:27:48.706Z,9.72
2023-05-05T00:28:21.594Z,9.72
2023-05-05T00:28:52.895Z,9.77
2023-05-05T00:29:25.640Z,9.77
2023-05-05T00:29:56.841Z,9.72
2023-05-05T00:30:30.883Z,9.72
2023-05-05T00:31:00.808Z,9.72
2023-05-05T00:31:33.817Z,9.72
2023-05-05T00:32:04.903Z,9.72
2023-05-05T00:32:37.818Z,9.72
2023-05-05T00:33:08.749Z,9.72
2023-05-05T00:33:41.719Z,9.72
2023-05-05T00:34:12.947Z,9.72
2023-05-05T00:34:46.828Z,9.72
2023-05-05T00:35:16.999Z,9.72
2023-05-05T00:35:49.743Z,9.72
2023-05-05T00:36:20.866Z,9.61
2023-05-05T00:36:53.670Z,9.61
2023-05-05T00:37:24.790Z,9.61
2023-05-05T00:37:57.734Z,9.61
2023-05-05T00:38:28.761Z,9.61
2023-05-05T00:39:01.550Z,9.61
2023-05-05T00:39:32.864Z,9.61
2023-05-05T00:40:06.008Z,9.61
2023-05-05T00:40:36.826Z,9.61
2023-05-05T00:41:09.651Z,9.61
2023-05-05T00:41:40.866Z,9.61
2023-05-05T00:42:13.661Z,9.61
2023-05-05T00:42:44.756Z,9.61
2023-05-05T00:43:17.781Z,9.61
2023-05-05T00:43:48.889Z,9.61
2023-05-05T00:44:21.579Z,9.61
2023-05-05T00:44:52.852Z,9.61
2023-05-05T00:45:26.868Z,9.61
2023-05-05T00:45:56.849Z,9.61
2023-05-05T00:46:29.836Z,9.61
2023-05-05T00:47:00.985Z,9.61
2023-05-05T00:47:33.881Z,9.61
2023-05-05T00:48:04.852Z,9.61
2023-05-05T00:48:37.665Z,9.61
2023-05-05T00:49:08.951Z,9.61
2023-05-05T00:49:41.903Z,9.61
2023-05-05T00:50:13.056Z,9.50
2023-05-05T00:50:45.751Z,9.50
2023-05-05T00:51:16.871Z,9.50
2023-05-05T00:51:49.750Z,9.50
2023-05-05T00:52:20.821Z,9.50
2023-05-05T00:52:53.933Z,9.50
2023-05-05T00:53:24.740Z,9.50
2023-05-05T00:53:57.550Z,9.50
2023-05-05T00:54:28.877Z,9.50
2023-05-05T00:55:02.276Z,9.50
2023-05-05T00:55:32.768Z,9.50
2023-05-05T00:56:05.768Z,9.50
2023-05-05T00:56:37.000Z,9.50
2023-05-05T00:57:09.732Z,9.50
2023-05-05T00:57:40.749Z,9.50
2023-05-05T00:58:13.824Z,9.50
2023-05-05T00:58:44.916Z,9.50
2023-05-05T00:59:17.749Z,9.50
2023-05-05T00:59:48.791Z,9.50
2023-05-05T01:00:23.660Z,9.50
2023-05-05T01:00:53.024Z,9.38
2023-05-05T01:01:25.726Z,9.38
2023-05-05T01:01:57.082Z,9.38
2023-05-05T01:02:29.921Z,9.38
2023-05-05T01:03:01.055Z,9.38
2023-05-05T01:03:33.795Z,9.38
2023-05-05T01:04:04.845Z,9.38
2023-05-05T01:04:37.804Z,9.38
2023-05-05T01:05:09.159Z,9.38
2023-05-05T01:05:41.833Z,9.38
2023-05-05T01:06:12.773Z,9.38
2023-05-05T01:06:45.540Z,9.38
2023-05-05T01:07:16.825Z,9.38
2023-05-05T01:07:49.652Z,9.38
2023-05-05T01:08:20.798Z,9.38
2023-05-05T01:08:53.635Z,9.38
2023-05-05T01:09:24.910Z,9.27
2023-05-05T01:10:07.572Z,9.27
2023-05-05T01:10:29.198Z,9.27
2023-05-05T01:11:01.799Z,9.27
2023-05-05T01:11:32.899Z,9.27
2023-05-05T01:12:05.718Z,9.27
2023-05-05T01:12:36.838Z,9.27
2023-05-05T01:13:09.824Z,9.27
2023-05-05T01:13:40.829Z,9.27
2023-05-05T01:14:13.971Z,9.27
2023-05-05T01:14:44.987Z,9.27
2023-05-05T01:15:18.549Z,9.27
2023-05-05T01:15:49.040Z,9.27
2023-05-05T01:16:22.192Z,9.27
2023-05-05T01:16:52.828Z,9.22
2023-05-05T01:17:25.794Z,9.22
2023-05-05T01:17:56.782Z,9.22
2023-05-05T01:18:29.876Z,9.22
2023-05-05T01:19:00.772Z,9.22
2023-05-05T01:19:33.772Z,9.22
2023-05-05T01:20:05.033Z,9.22
2023-05-05T01:20:37.774Z,9.22
2023-05-05T01:21:08.886Z,9.22
2023-05-05T01:21:41.847Z,9.22
2023-05-05T01:22:12.989Z,9.22
2023-05-05T01:22:45.514Z,9.22
2023-05-05T01:23:16.949Z,9.11
2023-05-05T01:23:49.759Z,9.11
2023-05-05T01:24:20.789Z,9.11
2023-05-05T01:24:53.675Z,9.11
2023-05-05T01:25:25.213Z,9.11
2023-05-05T01:25:57.638Z,9.11
2023-05-05T01:26:28.744Z,9.11
2023-05-05T01:27:02.073Z,9.11
2023-05-05T01:27:32.927Z,9.11
2023-05-05T01:28:05.664Z,9.11
2023-05-05T01:28:36.825Z,9.11
2023-05-05T01:29:09.659Z,9.11
2023-05-05T01:29:40.801Z,9.11
2023-05-05T01:30:15.138Z,9.11
2023-05-05T01:30:45.024Z,9.11
2023-05-05T01:31:17.677Z,9.11
2023-05-05T01:31:48.703Z,9.11
2023-05-05T01:32:21.758Z,9.11
2023-05-05T01:32:53.098Z,9.11
2023-05-05T01:33:25.548Z,9.11
2023-05-05T01:33:56.864Z,9.00
2023-05-05T01:34:29.673Z,9.00
2023-05-05T01:35:01.209Z,9.00
2023-05-05T01:35:33.627Z,9.00
2023-05-05T01:36:04.890Z,9.00
2023-05-05T01:36:37.835Z,9.00
2023-05-05T01:37:08.745Z,9.00
2023-05-05T01:37:41.670Z,9.00
2023-05-05T01:38:12.773Z,9.00
2023-05-05T01:38:45.526Z,9.00
2023-05-05T01:39:16.764Z,8.88
2023-05-05T01:39:49.522Z,8.88
2023-05-05T01:40:21.226Z,8.88
2023-05-05T01:40:53.697Z,8.88
2023-05-05T01:41:24.878Z,8.88
2023-05-05T01:41:57.647Z,8.88
2023-05-05T01:42:28.725Z,8.88
2023-05-05T01:43:01.831Z,8.88
2023-05-05T01:43:32.928Z,8.88
2023-05-05T01:44:05.799Z,8.88
2023-05-05T01:44:36.822Z,8.88
2023-05-05T01:45:10.927Z,8.88
2023-05-05T01:45:41.119Z,8.77
2023-05-05T01:46:13.738Z,8.77
2023-05-05T01:46:44.813Z,8.77
2023-05-05T01:47:17.665Z,8.77
2023-05-05T01:47:48.799Z,8.77
2023-05-05T01:48:21.850Z,8.77
2023-05-05T01:48:52.875Z,8.77
2023-05-05T01:49:25.564Z,8.77
2023-05-05T01:49:56.712Z,8.77
2023-05-05T01:50:13.284Z,8.77
2023-05-05T01:50:44.668Z,8.77
2023-05-05T01:51:16.977Z,8.77
2023-05-05T01:51:48.875Z,8.77
2023-05-05T01:52:20.987Z,8.77
2023-05-05T01:52:52.835Z,8.77
2023-05-05T01:53:24.886Z,8.77
2023-05-05T01:53:56.811Z,8.77
2023-05-05T01:54:28.749Z,8.77
2023-05-05T01:55:02.021Z,8.77
2023-05-05T01:55:32.938Z,8.77
2023-05-05T01:56:05.792Z,8.77
2023-05-05T01:56:36.963Z,8.77
2023-05-05T01:57:09.721Z,8.77
2023-05-05T01:57:40.998Z,8.77
2023-05-05T01:58:13.763Z,8.77
2023-05-05T01:58:44.857Z,8.77
2023-05-05T01:59:17.883Z,8.77
2023-05-05T01:59:48.854Z,8.77
2023-05-05T02:00:23.264Z,8.77
2023-05-05T02:00:53.100Z,8.77
2023-05-05T02:01:25.611Z,8.77
2023-05-05T02:01:56.937Z,8.77
2023-05-05T02:02:30.101Z,8.77
2023-05-05T02:03:01.238Z,8.77
2023-05-05T02:03:33.888Z,8.77
2023-05-05T02:04:04.977Z,8.77
2023-05-05T02:04:39.115Z,8.77
2023-05-05T02:05:09.182Z,8.77
2023-05-05T02:05:41.655Z,8.77
2023-05-05T02:06:12.890Z,8.77
2023-05-05T02:06:46.109Z,8.77
2023-05-05T02:07:16.874Z,8.77
2023-05-05T02:07:50.004Z,8.77
2023-05-05T02:08:21.081Z,8.77
2023-05-05T02:08:54.039Z,8.77
2023-05-05T02:09:25.064Z,8.77
2023-05-05T02:09:57.787Z,8.77
2023-05-05T02:10:29.536Z,8.77
2023-05-05T02:11:02.114Z,8.77
2023-05-05T02:11:32.974Z,8.77
2023-05-05T02:12:06.111Z,8.77
2023-05-05T02:12:37.235Z,8.77
2023-05-05T02:13:10.059Z,8.77
2023-05-05T02:13:41.153Z,8.77
2023-05-05T02:14:13.819Z,8.77
2023-05-05T02:14:44.848Z,8.77
2023-05-05T02:15:18.696Z,8.77
2023-05-05T02:15:49.153Z,8.77
2023-05-05T02:16:21.977Z,8.77
2023-05-05T02:16:52.914Z,8.77
2023-05-05T02:17:25.806Z,8.77
2023-05-05T02:17:57.075Z,8.77
2023-05-05T02:18:29.827Z,8.72
2023-05-05T02:19:00.995Z,8.72
2023-05-05T02:19:33.765Z,8.72
2023-05-05T02:20:05.362Z,8.72
2023-05-05T02:20:37.999Z,8.72
2023-05-05T02:21:08.987Z,8.72
2023-05-05T02:21:41.970Z,8.77
2023-05-05T02:22:12.897Z,8.77
2023-05-05T02:22:45.729Z,8.72
2023-05-05T02:23:16.988Z,8.72
2023-05-05T02:23:49.943Z,8.72
2023-05-05T02:24:20.868Z,8.72
2023-05-05T02:24:53.948Z,8.77
2023-05-05T02:25:25.225Z,8.77
2023-05-05T02:25:57.564Z,8.77
2023-05-05T02:26:28.925Z,8.77
2023-05-05T02:27:01.959Z,8.72
2023-05-05T02:27:32.817Z,8.72
2023-05-05T02:28:05.809Z,8.72
2023-05-05T02:28:37.047Z,8.72
2023-05-05T02:29:09.692Z,8.72
2023-05-05T02:29:40.792Z,8.72
2023-05-05T02:30:14.898Z,8.72
2023-05-05T02:30:45.063Z,8.72
2023-05-05T02:31:17.771Z,8.72
2023-05-05T02:31:49.010Z,8.72
2023-05-05T02:32:21.879Z,8.72
2023-05-05T02:32:52.977Z,8.72
2023-05-05T02:33:25.694Z,8.72
2023-05-05T02:33:56.940Z,8.72
2023-05-05T02:34:30.530Z,8.72
2023-05-05T02:35:01.217Z,8.72
2023-05-05T02:35:33.664Z,8.72
2023-05-05T02:36:04.904Z,8.72
2023-05-05T02:36:37.856Z,8.72
2023-05-05T02:37:08.851Z,8.72
2023-05-05T02:37:42.076Z,8.72
2023-05-05T02:38:12.894Z,8.72
2023-05-05T02:38:45.770Z,8.72
2023-05-05T02:39:16.903Z,8.72
2023-05-05T02:39:49.850Z,8.72
2023-05-05T02:40:21.325Z,8.72
2023-05-05T02:40:53.883Z,8.72
2023-05-05T02:41:24.865Z,8.72
2023-05-05T02:41:57.779Z,8.72
2023-05-05T02:42:28.798Z,8.72
2023-05-05T02:43:02.017Z,8.72
2023-05-05T02:43:32.901Z,8.72
2023-05-05T02:44:05.735Z,8.72
2023-05-05T02:44:36.911Z,8.72
2023-05-05T02:45:11.388Z,8.77
2023-05-05T02:45:41.118Z,8.77
2023-05-05T02:46:13.726Z,8.77
2023-05-05T02:46:44.974Z,8.77
2023-05-05T02:47:17.923Z,8.77
2023-05-05T02:47:48.996Z,8.77
2023-05-05T02:48:21.749Z,8.77
2023-05-05T02:48:52.976Z,8.77
2023-05-05T02:49:25.920Z,8.77
2023-05-05T02:49:56.891Z,8.77
2023-05-05T02:50:13.346Z,8.77
2023-05-05T02:50:44.875Z,8.88
2023-05-05T02:51:16.932Z,8.88
2023-05-05T02:51:48.915Z,8.88
2023-05-05T02:52:20.882Z,8.88
2023-05-05T02:52:53.866Z,8.77
2023-05-05T02:53:24.904Z,8.77
2023-05-05T02:53:57.755Z,8.77
2023-05-05T02:54:28.929Z,8.77
2023-05-05T02:55:02.398Z,8.88
2023-05-05T02:55:32.988Z,8.88
2023-05-05T02:56:05.714Z,8.88
2023-05-05T02:56:36.853Z,8.88
2023-05-05T02:57:09.899Z,8.77
2023-05-05T02:57:40.924Z,8.77
2023-05-05T02:58:13.573Z,8.88
2023-05-05T02:58:44.932Z,8.88
2023-05-05T02:59:17.807Z,8.77
2023-05-05T02:59:49.048Z,8.77
2023-05-05T03:00:22.870Z,8.77
2023-05-05T03:00:53.048Z,8.77
2023-05-05T03:01:25.839Z,8.77
2023-05-05T03:01:57.024Z,8.77
2023-05-05T03:02:29.747Z,8.77
2023-05-05T03:03:01.134Z,8.77
2023-05-05T03:03:33.634Z,8.77
2023-05-05T03:04:04.849Z,8.77
2023-05-05T03:04:37.739Z,8.77
2023-05-05T03:05:09.058Z,8.77
2023-05-05T03:05:41.667Z,8.77
2023-05-05T03:06:12.766Z,8.77
2023-05-05T03:06:45.757Z,8.77
2023-05-05T03:07:16.774Z,8.77
2023-05-05T03:07:49.713Z,8.77
2023-05-05T03:08:21.042Z,8.77
2023-05-05T03:08:53.818Z,8.77
2023-05-05T03:09:25.014Z,8.77
2023-05-05T03:09:57.782Z,8.77
2023-05-05T03:10:29.353Z,8.77
2023-05-05T03:11:01.655Z,8.77
2023-05-05T03:11:32.872Z,8.77
2023-05-05T03:12:05.795Z,8.77
2023-05-05T03:12:36.957Z,8.77
2023-05-05T03:13:09.747Z,8.77
2023-05-05T03:13:46.713Z,8.77
2023-05-05T03:14:13.647Z,8.77
2023-05-05T03:14:44.829Z,8.77
2023-05-05T03:15:18.695Z,8.72
2023-05-05T03:15:49.113Z,8.72
2023-05-05T03:16:21.618Z,8.72
2023-05-05T03:16:52.884Z,8.72
2023-05-05T03:17:25.827Z,8.72
2023-05-05T03:17:57.167Z,8.72
2023-05-05T03:18:29.617Z,8.72
2023-05-05T03:19:01.009Z,8.72
2023-05-05T03:19:33.753Z,8.72
2023-05-05T03:20:05.262Z,8.72
2023-05-05T03:20:37.748Z,8.72
2023-05-05T03:21:09.044Z,8.72
2023-05-05T03:21:41.880Z,8.72
2023-05-05T03:22:12.875Z,8.72
2023-05-05T03:22:45.792Z,8.61
2023-05-05T03:23:16.996Z,8.61
2023-05-05T03:23:49.446Z,8.61
2023-05-05T03:24:20.915Z,8.61
2023-05-05T03:24:53.737Z,8.61
2023-05-05T03:25:25.188Z,8.61
2023-05-05T03:25:57.588Z,8.61
2023-05-05T03:26:28.835Z,8.61
2023-05-05T03:27:01.956Z,8.61
2023-05-05T03:27:32.919Z,8.61
2023-05-05T03:28:05.694Z,8.61
2023-05-05T03:28:36.898Z,8.61
2023-05-05T03:29:09.853Z,8.50
2023-05-05T03:29:40.822Z,8.50
2023-05-05T03:30:14.996Z,8.50
2023-05-05T03:30:45.051Z,8.50
2023-05-05T03:31:17.551Z,8.50
2023-05-05T03:31:48.924Z,8.50
2023-05-05T03:32:22.037Z,8.50
2023-05-05T03:32:53.033Z,8.50
2023-05-05T03:33:25.763Z,8.50
2023-05-05T03:33:56.898Z,8.50
2023-05-05T03:34:29.726Z,8.50
2023-05-05T03:35:01.390Z,8.50
2023-05-05T03:35:33.703Z,8.50
2023-05-05T03:36:04.940Z,8.50
2023-05-05T03:36:37.640Z,8.38
2023-05-05T03:37:08.904Z,8.38
2023-05-05T03:37:41.705Z,8.38
2023-05-05T03:38:12.970Z,8.38
2023-05-05T03:38:45.640Z,8.38
2023-05-05T03:39:49.784Z,8.38
2023-05-05T03:40:29.673Z,8.38
2023-05-05T03:40:53.597Z,8.38
2023-05-05T03:41:24.984Z,8.38
2023-05-05T03:41:57.888Z,8.27
2023-05-05T03:42:28.809Z,8.27
2023-05-05T03:43:01.820Z,8.27
2023-05-05T03:43:32.924Z,8.27
2023-05-05T03:44:05.731Z,8.27
2023-05-05T03:44:36.892Z,8.27
2023-05-05T03:45:10.808Z,8.27
2023-05-05T03:45:41.197Z,8.27
2023-05-05T03:46:13.634Z,8.27
2023-05-05T03:46:44.968Z,8.27
2023-05-05T03:47:18.069Z,8.27
2023-05-05T03:47:48.916Z,8.27
2023-05-05T03:48:21.840Z,8.27
2023-05-05T03:48:52.962Z,8.27
2023-05-05T03:49:25.856Z,8.27
2023-05-05T03:49:56.811Z,8.27
2023-05-05T03:50:13.279Z,8.27
2023-05-05T03:50:44.871Z,8.27
2023-05-05T03:51:17.091Z,8.27
2023-05-05T03:51:49.171Z,8.27
2023-05-05T03:52:21.114Z,8.27
2023-05-05T03:52:53.056Z,8.27
2023-05-05T03:53:25.196Z,8.27
2023-05-05T03:53:57.190Z,8.27
2023-05-05T03:54:28.830Z,8.27
2023-05-05T03:55:02.363Z,8.27
2023-05-05T03:55:33.177Z,8.27
2023-05-05T03:56:06.076Z,8.27
2023-05-05T03:56:37.182Z,8.27
2023-05-05T03:57:10.085Z,8.27
2023-05-05T03:57:41.251Z,8.27
2023-05-05T03:58:13.886Z,8.27
2023-05-05T03:58:45.024Z,8.27
2023-05-05T03:59:18.062Z,8.27
2023-05-05T03:59:49.310Z,8.27
2023-05-05T04:00:23.475Z,8.27
2023-05-05T04:00:53.297Z,8.27
2023-05-05T04:01:26.121Z,8.27
2023-05-05T04:01:57.103Z,8.27
2023-05-05T04:02:13.316Z,8.27
2023-05-05T04:02:45.107Z,8.27
2023-05-05T04:03:17.283Z,8.27
2023-05-05T04:03:50.188Z,8.27
2023-05-05T04:04:21.252Z,8.38
2023-05-05T04:04:54.058Z,8.38
2023-05-05T04:05:25.370Z,8.38
2023-05-05T04:05:58.221Z,8.38
2023-05-05T04:06:28.980Z,8.38
2023-05-05T04:07:02.121Z,8.38
2023-05-05T04:07:33.107Z,8.38
2023-05-05T04:08:06.080Z,8.38
2023-05-05T04:08:37.243Z,8.38
2023-05-05T04:09:10.764Z,8.38
2023-05-05T04:09:41.162Z,8.50
2023-05-05T04:10:14.286Z,8.50
2023-05-05T04:10:45.087Z,8.50
2023-05-05T04:11:18.114Z,8.50
2023-05-05T04:11:49.288Z,8.50
2023-05-05T04:12:22.198Z,8.50
2023-05-05T04:12:53.242Z,8.61
2023-05-05T04:13:33.196Z,8.61
2023-05-05T04:13:57.186Z,8.61
2023-05-05T04:14:29.161Z,8.61
2023-05-05T04:15:03.676Z,8.72
2023-05-05T04:15:33.395Z,8.72
2023-05-05T04:16:05.915Z,8.72
2023-05-05T04:16:37.056Z,8.72
2023-05-05T04:17:11.105Z,8.77
2023-05-05T04:17:40.964Z,8.77
2023-05-05T04:18:14.191Z,8.77
2023-05-05T04:18:45.211Z,8.77
2023-05-05T04:19:18.066Z,8.77
2023-05-05T04:19:49.195Z,8.77
2023-05-05T04:20:24.170Z,8.88
2023-05-05T04:20:53.278Z,8.88
2023-05-05T04:21:26.057Z,8.88
2023-05-05T04:21:57.201Z,8.88
2023-05-05T04:22:30.224Z,8.88
2023-05-05T04:23:01.128Z,8.88
2023-05-05T04:23:33.956Z,8.88
2023-05-05T04:24:05.183Z,8.88
2023-05-05T04:24:38.208Z,9.00
2023-05-05T04:25:09.315Z,9.00
2023-05-05T04:25:42.891Z,9.00
2023-05-05T04:26:13.232Z,9.00
2023-05-05T04:26:46.163Z,9.00
2023-05-05T04:27:17.088Z,9.00
2023-05-05T04:27:50.084Z,9.00
2023-05-05T04:28:22.195Z,9.00
2023-05-05T04:28:54.081Z,9.11
2023-05-05T04:29:25.164Z,9.11
2023-05-05T04:29:58.046Z,9.22
2023-05-05T04:30:30.344Z,9.22
2023-05-05T04:31:02.278Z,9.22
2023-05-05T04:31:33.240Z,9.22
2023-05-05T04:32:06.086Z,9.27
2023-05-05T04:32:37.111Z,9.27
2023-05-05T04:33:10.135Z,9.27
2023-05-05T04:33:41.175Z,9.27
2023-05-05T04:34:14.092Z,9.27
2023-05-05T04:34:45.208Z,9.27
2023-05-05T04:35:18.486Z,9.38
2023-05-05T04:35:49.068Z,9.38
2023-05-05T04:36:22.309Z,9.38
2023-05-05T04:36:53.202Z,9.38
2023-05-05T04:37:26.132Z,9.50
2023-05-05T04:37:57.068Z,9.50
2023-05-05T04:38:30.099Z,9.50
2023-05-05T04:39:01.349Z,9.50
2023-05-05T04:39:33.908Z,9.61
2023-05-05T04:40:05.339Z,9.61
2023-05-05T04:40:37.996Z,9.61
2023-05-05T04:41:09.180Z,9.61
2023-05-05T04:41:42.173Z,9.72
2023-05-05T04:42:13.219Z,9.72
2023-05-05T04:42:46.331Z,9.72
2023-05-05T04:43:17.156Z,9.72
2023-05-05T04:43:50.115Z,9.72
2023-05-05T04:44:21.156Z,9.72
2023-05-05T04:44:54.336Z,9.72
2023-05-05T04:45:26.136Z,9.72
2023-05-05T04:45:58.324Z,9.77
2023-05-05T04:46:29.246Z,9.77
2023-05-05T04:47:02.133Z,9.77
2023-05-05T04:47:33.141Z,9.77
2023-05-05T04:48:06.237Z,9.77
2023-05-05T04:48:37.201Z,9.77
2023-05-05T04:49:09.895Z,9.88
2023-05-05T04:49:41.112Z,9.88
2023-05-05T04:50:14.386Z,9.88
2023-05-05T04:50:45.217Z,9.88
2023-05-05T04:51:18.061Z,9.88
2023-05-05T04:51:49.263Z,9.88
2023-05-05T04:52:22.434Z,10.00
2023-05-05T04:52:53.160Z,10.00
2023-05-05T04:53:26.233Z,10.00
2023-05-05T04:53:57.231Z,10.00
2023-05-05T04:54:29.948Z,10.00
2023-05-05T04:55:01.505Z,10.00
2023-05-05T04:55:34.016Z,10.00
2023-05-05T04:56:05.287Z,10.00
2023-05-05T04:56:38.065Z,10.11
2023-05-05T04:57:09.293Z,10.11
2023-05-05T04:57:42.194Z,10.11
2023-05-05T04:58:13.071Z,10.11
2023-05-05T04:58:45.860Z,10.11
2023-05-05T04:59:17.317Z,10.11
2023-05-05T04:59:50.181Z,10.22
2023-05-05T05:00:22.207Z,10.22
2023-05-05T05:00:54.926Z,10.27
2023-05-05T05:01:25.311Z,10.27
2023-05-05T05:01:57.994Z,10.27
2023-05-05T05:02:29.258Z,10.27
2023-05-05T05:03:02.091Z,10.38
2023-05-05T05:03:33.132Z,10.38
2023-05-05T05:04:06.057Z,10.38
2023-05-05T05:04:37.168Z,10.38
2023-05-05T05:05:11.412Z,10.50
2023-05-05T05:05:41.140Z,10.50
2023-05-05T05:06:14.042Z,10.50
2023-05-05T05:06:45.218Z,10.50
2023-05-05T05:07:18.040Z,10.61
2023-05-05T05:07:49.086Z,10.61
2023-05-05T05:08:22.028Z,10.72
2023-05-05T05:08:53.324Z,10.72
2023-05-05T05:09:26.063Z,10.72
2023-05-05T05:09:57.192Z,10.72
2023-05-05T05:10:30.320Z,10.77
2023-05-05T05:11:01.184Z,10.77
2023-05-05T05:11:33.992Z,10.88
2023-05-05T05:12:05.117Z,10.88
2023-05-05T05:12:39.084Z,11.00
2023-05-05T05:13:11.966Z,11.00
2023-05-05T05:13:42.080Z,11.11
2023-05-05T05:14:13.102Z,11.11
2023-05-05T05:14:46.055Z,11.22
2023-05-05T05:15:18.213Z,11.22
2023-05-05T05:15:50.301Z,11.27
2023-05-05T05:16:21.312Z,11.27
2023-05-05T05:16:54.069Z,11.38
2023-05-05T05:17:25.210Z,11.38
2023-05-05T05:17:58.267Z,11.50
2023-05-05T05:18:29.273Z,11.50
2023-05-05T05:19:02.103Z,11.50
2023-05-05T05:19:33.180Z,11.50
2023-05-05T05:20:06.408Z,11.61
2023-05-05T05:20:37.179Z,11.61
2023-05-05T05:21:10.088Z,11.72
2023-05-05T05:21:41.269Z,11.72
2023-05-05T05:22:14.221Z,11.77
2023-05-05T05:22:45.207Z,11.77
2023-05-05T05:23:18.037Z,11.77
2023-05-05T05:23:49.227Z,11.77
2023-05-05T05:24:22.163Z,11.88
2023-05-05T05:24:53.215Z,11.88
2023-05-05T05:25:26.604Z,11.88
2023-05-05T05:25:57.137Z,11.88
2023-05-05T05:26:29.977Z,11.88
2023-05-05T05:27:01.612Z,11.88
2023-05-05T05:27:34.437Z,12.00
2023-05-05T05:28:38.009Z,12.00
2023-05-05T05:29:09.261Z,12.00
2023-05-05T05:29:42.090Z,12.00
2023-05-05T05:30:14.297Z,12.00
2023-05-05T05:30:46.282Z,12.11
2023-05-05T05:31:17.146Z,12.11
2023-05-05T05:31:50.087Z,12.11
2023-05-05T05:32:21.225Z,12.11
2023-05-05T05:32:54.333Z,12.11
2023-05-05T05:33:25.118Z,12.11
2023-05-05T05:33:58.143Z,12.11
2023-05-05T05:34:29.301Z,12.11
2023-05-05T05:35:02.402Z,12.22
2023-05-05T05:35:33.297Z,12.22
2023-05-05T05:36:06.217Z,12.22
2023-05-05T05:36:37.148Z,12.22
2023-05-05T05:37:10.233Z,12.22
2023-05-05T05:37:41.251Z,12.22
2023-05-05T05:38:13.953Z,12.27
2023-05-05T05:38:45.154Z,12.27
2023-05-05T05:39:18.077Z,12.38
2023-05-05T05:39:49.332Z,12.38
2023-05-05T05:40:22.294Z,12.50
2023-05-05T05:40:53.321Z,12.50
2023-05-05T05:41:25.956Z,12.61
2023-05-05T05:41:57.102Z,12.61
2023-05-05T05:42:31.348Z,12.61
2023-05-05T05:43:01.386Z,12.61
2023-05-05T05:43:33.925Z,12.61
2023-05-05T05:44:05.185Z,12.61
2023-05-05T05:44:38.589Z,12.72
2023-05-05T05:45:10.607Z,12.72
2023-05-05T05:45:42.519Z,12.77
2023-05-05T05:46:13.559Z,12.77
2023-05-05T05:46:46.416Z,12.88
2023-05-05T05:47:17.527Z,12.88
2023-05-05T05:47:50.542Z,13.00
2023-05-05T05:48:21.636Z,13.00
2023-05-05T05:48:54.354Z,13.22
2023-05-05T05:49:25.657Z,13.22
2023-05-05T05:49:58.535Z,13.27
2023-05-05T05:50:29.838Z,13.27
2023-05-05T05:51:02.586Z,13.38
2023-05-05T05:51:33.598Z,13.38
2023-05-05T05:52:06.692Z,13.61
2023-05-05T05:52:37.564Z,13.61
2023-05-05T05:53:10.486Z,13.72
2023-05-05T05:53:41.362Z,13.72
2023-05-05T05:54:14.382Z,13.77
2023-05-05T05:54:45.573Z,13.77
2023-05-05T05:55:18.631Z,13.88
2023-05-05T05:55:49.133Z,13.88
2023-05-05T05:56:22.197Z,14.00
2023-05-05T05:56:53.638Z,14.00
2023-05-05T05:57:26.484Z,14.11
2023-05-05T05:57:57.507Z,14.11
2023-05-05T05:58:30.530Z,14.22
2023-05-05T05:59:01.439Z,14.22
2023-05-05T05:59:34.316Z,14.27
2023-05-05T06:00:07.360Z,14.27
2023-05-05T06:00:39.563Z,14.38
2023-05-05T06:01:09.459Z,14.38
2023-05-05T06:01:42.632Z,14.50
2023-05-05T06:02:13.843Z,14.50
2023-05-05T06:02:46.421Z,14.61
2023-05-05T06:03:17.697Z,14.61
2023-05-05T06:03:50.500Z,14.72
2023-05-05T06:04:21.331Z,14.72
2023-05-05T06:04:54.491Z,14.72
2023-05-05T06:05:25.933Z,14.72
2023-05-05T06:05:58.342Z,14.77
2023-05-05T06:06:29.548Z,14.77
2023-05-05T06:07:02.599Z,14.88
2023-05-05T06:07:33.445Z,14.88
2023-05-05T06:08:06.240Z,15.00
2023-05-05T06:08:37.576Z,15.00
2023-05-05T06:09:10.214Z,15.00
2023-05-05T06:09:41.098Z,15.00
2023-05-05T06:10:25.747Z,15.00
2023-05-05T06:10:45.485Z,15.00
2023-05-05T06:11:18.104Z,15.00
2023-05-05T06:11:49.485Z,15.00
2023-05-05T06:12:23.445Z,15.00
2023-05-05T06:12:53.735Z,15.00
2023-05-05T06:13:26.327Z,15.11
2023-05-05T06:13:57.556Z,15.11
2023-05-05T06:14:31.399Z,15.11
2023-05-05T06:15:02.919Z,15.11
2023-05-05T06:15:34.481Z,15.22
2023-05-05T06:16:05.617Z,15.22
2023-05-05T06:16:39.055Z,15.22
2023-05-05T06:17:09.481Z,15.22
2023-05-05T06:17:42.582Z,15.22
2023-05-05T06:18:13.628Z,15.22
2023-05-05T06:18:47.410Z,15.22
2023-05-05T06:19:17.532Z,15.22
2023-05-05T06:19:50.391Z,15.22
2023-05-05T06:20:21.860Z,15.22
2023-05-05T06:20:54.335Z,15.22
2023-05-05T06:21:25.656Z,15.22
2023-05-05T06:21:59.282Z,15.22
2023-05-05T06:22:29.463Z,15.22
2023-05-05T06:23:02.647Z,15.22
2023-05-05T06:23:33.657Z,15.22
2023-05-05T06:24:06.318Z,15.27
2023-05-05T06:24:37.488Z,15.27
2023-05-05T06:25:11.502Z,15.27
2023-05-05T06:25:41.667Z,15.27
2023-05-05T06:26:14.237Z,15.38
2023-05-05T06:26:45.603Z,15.38
2023-05-05T06:27:18.479Z,15.50
2023-05-05T06:27:49.318Z,15.50
2023-05-05T06:28:22.296Z,15.61
2023-05-05T06:28:53.649Z,15.61
2023-05-05T06:29:26.289Z,15.72
2023-05-05T06:29:57.438Z,15.72
2023-05-05T06:30:31.603Z,15.88
2023-05-05T06:31:01.574Z,15.88
2023-05-05T06:31:34.464Z,16.00
2023-05-05T06:32:05.493Z,16.00
2023-05-05T06:32:39.583Z,16.11
2023-05-05T06:33:09.611Z,16.11
2023-05-05T06:33:42.435Z,16.27
2023-05-05T06:34:13.565Z,16.27
2023-05-05T06:34:46.291Z,16.38
2023-05-05T06:35:17.697Z,16.38
2023-05-05T06:35:50.551Z,16.61
2023-05-05T06:36:21.457Z,16.61
2023-05-05T06:36:54.333Z,16.72
2023-05-05T06:37:25.624Z,16.72
2023-05-05T06:37:58.719Z,16.88
2023-05-05T06:38:29.483Z,16.88
2023-05-05T06:39:02.423Z,17.00
2023-05-05T06:39:33.391Z,17.00
2023-05-05T06:40:06.623Z,17.22
2023-05-05T06:40:37.532Z,17.22
2023-05-05T06:41:10.268Z,17.27
2023-05-05T06:41:41.460Z,17.27
2023-05-05T06:42:14.517Z,17.38
2023-05-05T06:42:45.587Z,17.38
2023-05-05T06:43:18.340Z,17.50
2023-05-05T06:43:49.604Z,17.50
2023-05-05T06:44:22.547Z,17.50
2023-05-05T06:44:53.434Z,17.50
2023-05-05T06:45:27.514Z,17.61
2023-05-05T06:45:57.730Z,17.61
2023-05-05T06:46:30.173Z,17.61
2023-05-05T06:47:01.640Z,17.61
2023-05-05T06:47:34.761Z,17.72
2023-05-05T06:48:05.681Z,17.72
2023-05-05T06:48:39.118Z,17.72
2023-05-05T06:49:09.531Z,17.72
2023-05-05T06:49:42.442Z,17.77
2023-05-05T06:50:13.729Z,17.77
2023-05-05T06:50:47.490Z,17.77
2023-05-05T06:51:17.543Z,17.77
2023-05-05T06:51:50.393Z,17.88
2023-05-05T06:52:21.395Z,17.88
2023-05-05T06:52:54.523Z,18.00
2023-05-05T06:53:25.619Z,18.00
2023-05-05T06:53:58.441Z,18.11
2023-05-05T06:54:29.452Z,18.11
2023-05-05T06:55:02.821Z,18.11
2023-05-05T06:55:33.440Z,18.11
2023-05-05T06:56:06.482Z,18.22
2023-05-05T06:56:37.900Z,18.22
2023-05-05T06:57:10.440Z,18.27
2023-05-05T06:57:41.478Z,18.27
2023-05-05T06:58:14.492Z,18.38
2023-05-05T06:58:45.626Z,18.38
2023-05-05T06:59:18.336Z,18.38
2023-05-05T06:59:49.557Z,18.38
2023-05-05T07:00:23.672Z,18.38
2023-05-05T07:00:53.675Z,18.38
2023-05-05T07:01:26.288Z,18.50